Gosford, Australia
Current Conditions -  °F | °C
As of 12:16 PM on Wednesday 28 Jan 2015 (Local Time) from YSRI Reporting Station
Moderate Rain Moderate Rain  
Wind Chill: 64°   Ceiling: 1900
Heat Index: 64°   Visibility: 5mi
Dew Point: 63°   Wind: 5mph
Humidity: 94%   Direction: 210°SSW
Pressure: 29.94"   Gusts: NA
Location:  33.43°S, 151.34°E
Report Text: YSRI 280116Z AUTO 21004KT 8000 RA SCT012 BKN019 BKN027 18/17 Q1014
Loading
Personal Weather Stations






























Interactive Weather Map New forecast layout! Learn more

10-Day Weather Forecast

Advertisements
Track Severe Weather on mobile